Nearby METAR Reports

 

KSJC - San Jose, California, USA
Distance from station: NE 14km
Updated: 24/09/2017 19:53
Clear
Clear
 Wind from SSE
Wind: SSE 6 km/h
Temperature: 13°C
Dew Point: 5°C
Humidity: 59%
Barometer: 1012.9 hPa
Clouds: Clear
Visibility: 16 km
2017/09/24 09:53 KSJC 240953Z AUTO 16003KT 10SM CLR 13/05 A2991 RMK AO2 SLP128 T01330050 $
KNUQ - Moffett Nas/Mtn, California, USA
Distance from station: N 14km
Updated: 24/09/2017 19:56
Clear
Clear
 Wind from calm
Wind: Calm
Temperature: 13°C
Dew Point: 4°C
Humidity: 55%
Barometer: 1013.2 hPa
Clouds: Clear
Visibility: 16 km
2017/09/24 09:56 KNUQ 240956Z AUTO 00000KT 10SM CLR 13/04 A2992 RMK AO2 SLP134 T01330039
KPAO - Palo Alto, California, USA
Distance from station: NNW 23km
Updated: 24/09/2017 13:47
NOT Current
Clear
Clear
 Wind from varies
Wind: varies 7 km/h
Temperature: 18°C
Dew Point: 7°C
Humidity: 49%
Barometer: 1012.5 hPa
Clouds: Clear
Visibility: 16 km
2017/09/24 03:47 KPAO 240347Z VRB04KT 10SM SKC 18/07 A2990 RMK LAST
 
KRHV - San Jose/Reid, California, USA
Distance from station: ENE 19km
Updated: 24/09/2017 14:54
NOT Current
Clear
Clear
 Wind from calm
Wind: Calm
Temperature: 17°C
Dew Point: 7°C
Humidity: 52%
Barometer: 1013.5 hPa
Clouds: Clear
Visibility: 16 km
2017/09/24 04:54 KRHV 240454Z 00000KT 10SM SKC 17/07 A2993
KOAK - Oakland, California, USA
Distance from station: NNW 50km
Updated: 24/09/2017 19:53
Clear
Clear
 Wind from NE
Wind: NE 6 km/h
Temperature: 13°C
Dew Point: 9°C
Humidity: 77%
Barometer: 1013.2 hPa
Clouds: Clear
Visibility: 16 km
2017/09/24 09:53 KOAK 240953Z 04003KT 10SM CLR 13/09 A2992 RMK AO2 SLP129 T01280094
KSQL - San Carlos Airpo, California, USA
Distance from station: NW 34km
Updated: 24/09/2017 20:15
Clear
Clear
 Wind from calm
Wind: Calm
Temperature: 13°C
Dew Point: 4°C
Humidity: 55%
Barometer: 1013.2 hPa
Clouds: Clear
Visibility: 16 km
2017/09/24 10:15 KSQL 241015Z AUTO 00000KT 10SM CLR 13/04 A2992 RMK AO2
 
KSFO - San Francisco, California, USA
Distance from station: NW 49km
Updated: 24/09/2017 19:56
Clear
Clear
 Wind from SW
Wind: SW 6 km/h
Temperature: 13°C
Dew Point: 6°C
Humidity: 63%
Barometer: 1012.9 hPa
Clouds: Clear
Visibility: 16 km
2017/09/24 09:56 KSFO 240956Z 22003KT 10SM CLR 13/06 A2991 RMK AO2 SLP128 T01330061
KE16 - San Martin, California, USA
Distance from station: ESE 43km
Updated: 24/09/2017 20:15
Clear
Clear
 Wind from calm
Wind: Calm
Temperature: 9°C
Dew Point: 3°C
Humidity: 66%
Barometer: 1014.2 hPa
Clouds: Clear
Visibility: 16 km
2017/09/24 10:15 KE16 241015Z AUTO 00000KT 10SM CLR 09/03 A2995 RMK AO2
KWVI - Watsonville, California, USA
Distance from station: SSE 44km
Updated: 24/09/2017 19:53
Clear
Clear
 Wind from NW
Wind: NW 9 km/h
Temperature: 11°C
Dew Point: 5°C
Humidity: 67%
Barometer: 1013.2 hPa
Clouds: Clear
Visibility: 16 km
2017/09/24 09:53 KWVI 240953Z AUTO 31005KT 10SM CLR 11/05 A2992 RMK AO2 SLP132 T01060050
 
KHAF - Half Moon Bay, California, USA
Distance from station: WNW 50km
Updated: 24/09/2017 20:15
Mostly cloudy
Mostly cloudy
 Wind from calm
Wind: Calm
Temperature: 7°C
Barometer: 1012.2 hPa
Clouds: Mostly cloudy
Visibility: 16 km
Cloud details: Mostly cloudy 91 m
2017/09/24 10:15 KHAF 241015Z AUTO 00000KT 10SM BKN003 07/ A2989 RMK AO2
KHWD - Hayward, California, USA
Distance from station: N 44km
Updated: 24/09/2017 19:54
Clear
Clear
 Wind from ENE
Wind: ENE 13 km/h
Temperature: 13°C
Dew Point: 6°C
Humidity: 63%
Barometer: 1012.9 hPa
Clouds: Clear
Visibility: 16 km
2017/09/24 09:54 KHWD 240954Z AUTO 06007KT 10SM CLR 13/06 A2991 RMK AO2 SLP137 T01330056
KLVK - Livermore, California, USA
Distance from station: NNE 51km
Updated: 24/09/2017 19:53
Clear
Clear
 Wind from calm
Wind: Calm
Temperature: 11°C
Dew Point: 4°C
Humidity: 62%
Barometer: 1013.2 hPa
Clouds: Clear
Visibility: 16 km
2017/09/24 09:53 KLVK 240953Z AUTO 00000KT 10SM CLR 11/04 A2992 RMK AO2 SLP128 T01060039